Time;durP1;ratioP1;P1;durP2;ratioP2;P2;SDS_P1;SDS_P2;PMS_P1;PMS_P2;Temp;Humidity;BMP_temperature;BMP_pressure;BME280_temperature;BME280_humidity;BME280_pressure;Samples;Min_cycle;Max_cycle;Signal;HPM_P1;HPM_P2
2022/08/30 00:01:01;;;;;;;5.65;2.90;;;14.80;99.90;;;;;;6043848;23;20022;-91
2022/08/30 00:01:57;;;;;;;5.75;2.40;;;14.80;99.90;;;;;;6067793;23;20380;-91
2022/08/30 00:04:23;;;;;;;3.33;1.80;;;14.70;99.90;;;;;;6044403;23;20029;-91
2022/08/30 00:06:49;;;;;;;2.58;1.73;;;14.70;99.90;;;;;;6044070;23;20376;-91
2022/08/30 00:09:14;;;;;;;2.55;1.60;;;14.60;99.90;;;;;;6044409;23;20053;-91
2022/08/30 00:11:40;;;;;;;2.08;1.17;;;14.50;99.90;;;;;;6044311;23;20033;-91
2022/08/30 00:14:06;;;;;;;2.28;1.30;;;14.50;99.90;;;;;;6045481;23;20343;-92
2022/08/30 00:16:32;;;;;;;2.88;1.70;;;14.40;99.90;;;;;;6044500;23;20022;-91
2022/08/30 00:18:58;;;;;;;4.55;2.28;;;14.40;99.90;;;;;;6044607;23;20510;-90
2022/08/30 00:21:25;;;;;;;5.80;2.20;;;14.30;99.90;;;;;;6043455;23;20451;-92
2022/08/30 00:23:51;;;;;;;6.55;2.45;;;14.30;99.90;;;;;;6044750;23;20523;-90
2022/08/30 00:26:17;;;;;;;4.38;1.80;;;14.30;99.90;;;;;;6044024;23;20042;-91
2022/08/30 00:28:43;;;;;;;6.40;2.10;;;14.20;99.90;;;;;;6042803;23;20029;-91
2022/08/30 00:31:09;;;;;;;5.18;2.00;;;14.20;99.90;;;;;;6043679;23;20026;-91
2022/08/30 00:33:35;;;;;;;8.02;2.25;;;14.10;99.90;;;;;;6044981;23;20018;-91
2022/08/30 00:36:01;;;;;;;4.85;2.17;;;14.10;99.90;;;;;;6045178;23;20444;-91
2022/08/30 00:38:27;;;;;;;4.93;1.83;;;14.10;99.90;;;;;;6055552;23;20079;-91
2022/08/30 00:40:53;;;;;;;3.95;1.73;;;14.00;99.90;;;;;;6068500;23;20015;-90
2022/08/30 00:43:23;;;;;;;5.30;2.10;;;14.00;99.90;;;;;;6066284;23;20317;-91
2022/08/30 00:45:50;;;;;;;4.80;2.03;;;14.20;99.90;;;;;;6070493;23;20018;-91
2022/08/30 00:48:16;;;;;;;5.15;2.30;;;13.90;99.90;;;;;;6069530;23;20110;-91
2022/08/30 00:50:45;;;;;;;3.95;2.13;;;13.90;99.90;;;;;;6066991;23;20053;-90
2022/08/30 00:53:16;;;;;;;4.95;2.22;;;13.90;99.90;;;;;;6067607;23;20046;-92
2022/08/30 00:55:43;;;;;;;7.75;2.35;;;13.90;99.90;;;;;;6066921;23;20014;-91
2022/08/30 00:58:15;;;;;;;3.20;1.85;;;13.80;99.90;;;;;;6066951;23;20395;-91
2022/08/30 01:00:42;;;;;;;5.85;2.70;;;13.80;99.90;;;;;;6067548;23;20014;-91
2022/08/30 01:03:08;;;;;;;4.18;2.05;;;13.80;99.90;;;;;;6066381;23;20022;-91
2022/08/30 01:05:37;;;;;;;6.20;2.22;;;13.90;99.90;;;;;;6067146;23;20021;-91
2022/08/30 01:08:04;;;;;;;5.70;2.53;;;13.80;99.90;;;;;;6067526;23;20021;-92
2022/08/30 01:10:32;;;;;;;5.03;2.40;;;13.80;99.90;;;;;;6066857;23;20518;-91
2022/08/30 01:12:58;;;;;;;7.40;2.53;;;13.80;99.90;;;;;;6067535;23;20079;-91
2022/08/30 01:15:23;;;;;;;5.90;2.75;;;13.80;99.90;;;;;;6067417;23;20015;-90
2022/08/30 01:17:49;;;;;;;4.55;2.28;;;13.70;99.90;;;;;;6068294;23;20138;-91
2022/08/30 01:20:22;;;;;;;2.95;1.58;;;13.70;99.90;;;;;;6067096;23;20339;-91
2022/08/30 01:22:48;;;;;;;3.67;1.80;;;13.70;99.90;;;;;;6068126;23;20451;-90
2022/08/30 01:25:16;;;;;;;4.13;2.30;;;13.60;99.90;;;;;;6066473;23;20029;-91
2022/08/30 01:27:48;;;;;;;5.53;2.00;;;13.60;99.90;;;;;;6067714;23;20029;-91
2022/08/30 01:30:14;;;;;;;8.73;2.60;;;13.60;99.90;;;;;;6068146;23;20014;-91
2022/08/30 01:32:44;;;;;;;8.48;2.17;;;13.80;99.90;;;;;;6066195;23;20053;-90
2022/08/30 01:35:14;;;;;;;3.30;1.92;;;13.60;99.90;;;;;;6067107;23;20037;-91
2022/08/30 01:37:39;;;;;;;8.07;2.40;;;13.80;99.90;;;;;;6066824;23;20251;-91
2022/08/30 01:40:07;;;;;;;3.65;2.40;;;13.70;99.90;;;;;;6067007;23;20110;-90
2022/08/30 01:42:32;;;;;;;7.03;3.50;;;13.70;99.90;;;;;;6066837;23;20030;-91
2022/08/30 01:44:58;;;;;;;7.13;2.88;;;13.70;99.90;;;;;;6067878;23;20045;-91
2022/08/30 01:47:24;;;;;;;6.80;2.80;;;13.70;99.90;;;;;;6067026;23;20498;-91
2022/08/30 01:49:50;;;;;;;5.03;2.50;;;13.80;99.90;;;;;;6067702;23;20014;-91
2022/08/30 01:52:17;;;;;;;5.53;2.47;;;13.80;99.90;;;;;;6065987;23;20026;-91
2022/08/30 01:54:44;;;;;;;5.85;2.60;;;13.80;99.90;;;;;;6067433;23;20054;-91
2022/08/30 01:57:14;;;;;;;5.93;2.65;;;13.80;99.90;;;;;;6066282;23;20018;-91
2022/08/30 01:59:42;;;;;;;7.50;2.78;;;13.80;99.90;;;;;;6066614;23;20032;-91
2022/08/30 02:02:09;;;;;;;4.80;1.92;;;13.80;99.90;;;;;;6066148;23;20451;-91
2022/08/30 02:04:35;;;;;;;3.88;1.90;;;13.80;99.90;;;;;;6067397;23;20010;-91
2022/08/30 02:07:03;;;;;;;6.35;1.85;;;13.80;99.90;;;;;;6068767;23;20022;-91
2022/08/30 02:09:29;;;;;;;2.85;1.90;;;13.80;99.90;;;;;;6067519;23;20018;-91
2022/08/30 02:11:54;;;;;;;3.22;1.67;;;13.80;99.90;;;;;;6067642;23;20026;-91
2022/08/30 02:14:20;;;;;;;2.78;1.92;;;13.80;99.90;;;;;;6065701;23;20014;-91
2022/08/30 02:16:47;;;;;;;3.17;2.17;;;13.80;99.90;;;;;;6067075;23;20029;-92
2022/08/30 02:19:13;;;;;;;5.72;2.40;;;13.80;99.90;;;;;;6067063;23;20059;-91
2022/08/30 02:21:38;;;;;;;8.95;2.90;;;13.90;99.90;;;;;;6066777;23;20333;-91
2022/08/30 02:24:04;;;;;;;5.68;2.67;;;14.00;99.90;;;;;;6067508;23;20022;-91
2022/08/30 02:26:30;;;;;;;9.02;2.60;;;13.90;99.90;;;;;;6066851;23;20015;-91
2022/08/30 02:28:57;;;;;;;7.75;2.70;;;13.90;99.90;;;;;;6066348;23;20026;-91
2022/08/30 02:31:23;;;;;;;4.57;2.65;;;13.90;99.90;;;;;;6066062;23;20031;-91
2022/08/30 02:33:50;;;;;;;6.45;4.15;;;13.90;99.90;;;;;;6068968;23;20022;-91
2022/08/30 02:36:16;;;;;;;6.30;3.60;;;13.90;99.90;;;;;;6066669;23;20018;-91
2022/08/30 02:38:42;;;;;;;10.00;3.72;;;13.90;99.90;;;;;;6066713;23;20034;-91
2022/08/30 02:41:08;;;;;;;8.00;3.40;;;13.80;99.90;;;;;;6066842;23;20018;-91
2022/08/30 02:43:34;;;;;;;6.60;4.55;;;13.80;99.90;;;;;;6066491;23;20101;-91
2022/08/30 02:45:59;;;;;;;8.65;4.90;;;13.80;99.90;;;;;;6069192;23;20022;-91
2022/08/30 02:48:25;;;;;;;12.25;4.82;;;13.80;99.90;;;;;;6066040;23;20030;-91
2022/08/30 02:50:51;;;;;;;10.30;4.60;;;13.70;99.90;;;;;;6066669;23;20026;-91
2022/08/30 02:53:19;;;;;;;10.27;5.32;;;13.70;99.90;;;;;;6067036;23;20022;-91
2022/08/30 02:55:45;;;;;;;13.18;5.18;;;13.70;99.90;;;;;;6066391;23;20022;-91
2022/08/30 02:58:11;;;;;;;10.10;5.45;;;13.80;99.90;;;;;;6066563;23;20444;-91
2022/08/30 03:00:37;;;;;;;10.55;6.05;;;13.80;99.90;;;;;;6066332;23;20054;-92
2022/08/30 03:03:05;;;;;;;11.93;6.03;;;13.80;99.90;;;;;;6065855;23;20070;-91
2022/08/30 03:05:32;;;;;;;13.40;5.57;;;13.80;99.90;;;;;;6066946;23;20014;-91
2022/08/30 03:07:59;;;;;;;13.68;6.68;;;13.80;99.90;;;;;;6066891;23;20018;-91
2022/08/30 03:10:26;;;;;;;12.25;7.05;;;13.80;99.90;;;;;;6065871;23;20021;-91
2022/08/30 03:12:53;;;;;;;14.10;7.10;;;13.80;99.90;;;;;;6066220;23;20029;-91
2022/08/30 03:15:19;;;;;;;12.25;7.15;;;13.80;99.90;;;;;;6066648;23;20018;-91
2022/08/30 03:17:45;;;;;;;16.67;7.88;;;13.70;99.90;;;;;;6068117;23;20025;-91
2022/08/30 03:20:11;;;;;;;15.85;8.43;;;13.70;99.90;;;;;;6067379;23;20019;-91
2022/08/30 03:22:38;;;;;;;13.02;8.60;;;13.80;99.90;;;;;;6066801;23;20470;-91
2022/08/30 03:25:04;;;;;;;12.10;8.52;;;13.70;99.90;;;;;;6066392;23;20010;-92
2022/08/30 03:27:30;;;;;;;13.30;9.07;;;13.70;99.90;;;;;;6066926;23;20081;-91
2022/08/30 03:29:56;;;;;;;14.02;8.93;;;13.70;99.90;;;;;;6071084;23;20348;-91
2022/08/30 03:32:23;;;;;;;10.48;7.97;;;13.70;99.90;;;;;;6067642;23;20022;-91
2022/08/30 03:34:49;;;;;;;12.63;7.97;;;13.70;99.90;;;;;;6069381;23;20022;-92
2022/08/30 03:37:15;;;;;;;15.05;7.80;;;13.80;99.90;;;;;;6068601;23;20014;-91
2022/08/30 03:39:41;;;;;;;11.55;7.38;;;13.90;99.90;;;;;;6044684;23;20022;-92
2022/08/30 03:42:07;;;;;;;16.13;7.22;;;13.80;99.90;;;;;;6043990;23;20045;-91
2022/08/30 03:44:32;;;;;;;12.27;6.30;;;13.80;99.90;;;;;;6044233;23;20444;-91
2022/08/30 03:46:58;;;;;;;13.43;6.55;;;13.70;99.90;;;;;;6044316;23;20075;-92
2022/08/30 03:49:24;;;;;;;12.40;5.72;;;13.80;99.90;;;;;;6044441;23;20021;-92
2022/08/30 03:51:50;;;;;;;8.13;5.97;;;13.70;99.90;;;;;;6044248;23;20018;-90
2022/08/30 03:54:16;;;;;;;9.85;5.47;;;13.70;99.90;;;;;;6044104;23;20097;-91
2022/08/30 03:56:42;;;;;;;10.80;5.03;;;13.70;99.90;;;;;;6044711;23;20033;-91
2022/08/30 03:59:08;;;;;;;7.18;5.15;;;13.70;99.90;;;;;;6043128;23;20022;-91
2022/08/30 04:01:34;;;;;;;10.52;5.05;;;13.60;99.90;;;;;;6043818;23;20018;-91
2022/08/30 04:03:59;;;;;;;10.07;4.85;;;13.60;99.90;;;;;;6044645;23;20072;-91
2022/08/30 04:06:26;;;;;;;11.65;4.72;;;13.50;99.90;;;;;;6043349;23;20018;-92
2022/08/30 04:08:51;;;;;;;7.72;3.75;;;13.50;99.90;;;;;;6045046;23;20068;-91
2022/08/30 04:11:17;;;;;;;7.03;4.03;;;13.40;99.90;;;;;;6044173;23;20018;-91
2022/08/30 04:13:43;;;;;;;7.22;4.43;;;13.60;99.90;;;;;;6042800;23;20479;-90
2022/08/30 04:16:09;;;;;;;16.52;4.05;;;13.40;99.90;;;;;;6043967;23;20117;-91
2022/08/30 04:18:35;;;;;;;10.15;3.85;;;13.30;99.90;;;;;;6041021;23;20026;-91
2022/08/30 04:21:02;;;;;;;10.73;4.30;;;13.20;99.90;;;;;;6043700;23;20077;-91
2022/08/30 04:23:28;;;;;;;7.97;3.75;;;13.20;99.90;;;;;;6043978;23;20041;-91
2022/08/30 04:25:54;;;;;;;6.43;3.40;;;13.10;99.90;;;;;;6044680;23;20105;-91
2022/08/30 04:28:21;;;;;;;8.45;3.25;;;13.10;99.90;;;;;;6042954;23;20045;-91
2022/08/30 04:30:47;;;;;;;8.52;3.05;;;13.00;99.90;;;;;;6043057;23;20028;-91
2022/08/30 04:33:14;;;;;;;7.03;3.30;;;13.00;99.90;;;;;;6043422;23;20018;-91
2022/08/30 04:35:43;;;;;;;6.32;2.90;;;12.90;99.90;;;;;;6043112;23;20062;-93
2022/08/30 04:38:09;;;;;;;6.63;3.53;;;12.90;99.90;;;;;;6051812;23;20347;-91
2022/08/30 04:40:35;;;;;;;10.27;3.05;;;13.10;99.90;;;;;;6069169;23;20081;-91
2022/08/30 04:43:01;;;;;;;6.88;3.50;;;12.90;99.90;;;;;;6068857;23;20030;-91
2022/08/30 04:45:26;;;;;;;7.85;2.97;;;12.90;99.90;;;;;;6067524;23;20022;-91
2022/08/30 04:47:52;;;;;;;6.05;3.35;;;13.40;99.90;;;;;;6067839;23;20105;-90
2022/08/30 04:50:19;;;;;;;9.43;3.45;;;12.80;99.90;;;;;;6070690;23;20018;-90
2022/08/30 04:52:46;;;;;;;7.68;3.42;;;12.90;99.90;;;;;;6068471;23;20022;-92
2022/08/30 04:55:13;;;;;;;9.18;3.25;;;12.90;99.90;;;;;;6067687;23;20480;-91
2022/08/30 04:57:39;;;;;;;5.78;3.20;;;12.80;99.90;;;;;;6069825;23;20023;-90
2022/08/30 05:00:09;;;;;;;5.75;3.25;;;12.90;99.90;;;;;;6070978;23;20030;-92
2022/08/30 05:02:35;;;;;;;8.13;3.00;;;12.80;99.90;;;;;;6070689;23;20452;-92
2022/08/30 05:07:48;;;;;;;10.73;3.60;;;12.80;99.90;;;;;;6092611;23;20026;-91
2022/08/30 05:10:14;;;;;;;11.48;4.03;;;12.90;99.90;;;;;;6067931;23;20021;-92
2022/08/30 05:12:40;;;;;;;13.38;4.07;;;12.80;99.90;;;;;;6067840;23;20026;-91
2022/08/30 05:15:07;;;;;;;9.40;4.10;;;13.10;99.90;;;;;;6069899;23;20460;-92
2022/08/30 05:17:32;;;;;;;8.13;3.70;;;12.80;99.90;;;;;;6066587;23;20109;-92
2022/08/30 05:20:01;;;;;;;10.05;4.47;;;12.80;99.90;;;;;;6068765;23;20045;-92
2022/08/30 05:22:27;;;;;;;7.50;3.25;;;12.80;99.90;;;;;;6067135;23;20137;-92
2022/08/30 05:24:52;;;;;;;5.90;3.40;;;12.90;99.90;;;;;;6070058;23;20018;-92
2022/08/30 05:27:18;;;;;;;5.97;3.45;;;12.80;99.90;;;;;;6067317;23;20071;-91
2022/08/30 05:29:44;;;;;;;6.20;3.30;;;12.80;99.90;;;;;;6067723;23;20018;-92
2022/08/30 05:32:10;;;;;;;9.10;3.97;;;12.90;99.90;;;;;;6068534;23;20060;-92
2022/08/30 05:34:35;;;;;;;6.85;3.58;;;12.90;99.90;;;;;;6067557;23;20018;-92
2022/08/30 05:37:01;;;;;;;6.32;3.65;;;12.90;99.90;;;;;;6067819;23;20340;-92
2022/08/30 05:39:28;;;;;;;11.07;3.70;;;13.20;99.90;;;;;;6067001;23;20150;-93
2022/08/30 05:41:58;;;;;;;8.40;3.28;;;13.00;99.90;;;;;;6067023;23;20055;-92
2022/08/30 05:44:24;;;;;;;8.38;4.22;;;13.10;99.90;;;;;;6066267;23;20029;-92
2022/08/30 05:46:50;;;;;;;10.25;3.85;;;13.10;99.90;;;;;;6067291;23;20015;-92
2022/08/30 05:49:16;;;;;;;7.68;3.72;;;13.20;99.90;;;;;;6069687;23;20105;-92
2022/08/30 05:51:42;;;;;;;10.45;3.88;;;13.20;99.90;;;;;;6070656;23;20022;-92
2022/08/30 05:54:08;;;;;;;7.32;3.58;;;13.30;99.90;;;;;;6069588;23;20025;-92
2022/08/30 05:56:36;;;;;;;8.85;3.72;;;13.40;99.90;;;;;;6069898;23;20097;-92
2022/08/30 05:59:05;;;;;;;7.45;3.45;;;13.80;99.90;;;;;;6067542;23;20015;-92
2022/08/30 06:01:34;;;;;;;11.05;4.20;;;13.60;99.90;;;;;;6067426;23;20014;-92
2022/08/30 06:04:03;;;;;;;14.55;4.78;;;13.70;99.90;;;;;;6069481;23;20014;-92
2022/08/30 06:06:30;;;;;;;10.60;4.57;;;13.70;99.90;;;;;;6070345;23;20106;-92
2022/08/30 06:08:56;;;;;;;14.48;4.32;;;13.80;99.90;;;;;;6067295;23;20069;-92
2022/08/30 06:11:24;;;;;;;8.30;4.25;;;13.90;99.90;;;;;;6066906;23;20449;-92
2022/08/30 06:13:51;;;;;;;12.13;5.07;;;14.10;99.90;;;;;;6067782;23;20022;-91
2022/08/30 06:16:20;;;;;;;10.10;4.57;;;14.30;99.90;;;;;;6067266;23;20101;-91
2022/08/30 06:18:46;;;;;;;8.68;4.53;;;14.30;99.90;;;;;;6067580;23;20248;-92
2022/08/30 06:21:19;;;;;;;15.35;4.82;;;14.40;99.90;;;;;;6066920;23;20014;-91
2022/08/30 06:23:45;;;;;;;;;;;14.50;99.90;;;;;;6068822;23;20015;-92
2022/08/30 06:26:11;;;;;;;7.90;4.43;;;14.60;99.90;;;;;;6069822;23;19923;-92
2022/08/30 06:28:37;;;;;;;9.55;3.90;;;14.70;99.90;;;;;;6069059;23;20081;-92
2022/08/30 06:31:07;;;;;;;9.88;3.50;;;14.80;99.90;;;;;;6069857;23;20019;-92
2022/08/30 06:33:33;;;;;;;12.35;3.53;;;14.90;99.90;;;;;;6066502;23;20023;-94
2022/08/30 06:36:04;;;;;;;10.40;3.75;;;15.00;99.90;;;;;;6068121;23;20168;-93
2022/08/30 06:38:30;;;;;;;12.00;3.97;;;15.10;99.90;;;;;;6066923;23;20093;-93
2022/08/30 06:40:56;;;;;;;11.43;4.53;;;15.20;99.90;;;;;;6066612;23;20113;-93
2022/08/30 06:43:21;;;;;;;8.77;3.20;;;15.30;99.90;;;;;;6066723;23;20026;-93
2022/08/30 06:45:47;;;;;;;7.47;3.15;;;15.40;99.90;;;;;;6067440;23;20077;-93
2022/08/30 06:48:13;;;;;;;7.70;3.28;;;15.40;99.90;;;;;;6066134;23;20018;-90
2022/08/30 06:50:40;;;;;;;8.05;2.72;;;15.50;99.90;;;;;;6067635;23;20029;-90
2022/08/30 06:53:07;;;;;;;12.10;2.55;;;15.60;99.90;;;;;;6067093;23;20026;-90
2022/08/30 06:55:33;;;;;;;8.60;2.08;;;15.70;99.90;;;;;;6066079;23;20018;-90
2022/08/30 06:58:01;;;;;;;6.25;1.98;;;15.80;99.90;;;;;;6066158;23;20018;-90
2022/08/30 07:00:27;;;;;;;5.53;1.85;;;15.90;99.90;;;;;;6067690;23;20022;-90
2022/08/30 07:02:53;;;;;;;7.43;1.80;;;16.00;99.90;;;;;;6067456;23;20019;-90
2022/08/30 07:05:22;;;;;;;7.68;1.45;;;16.10;99.90;;;;;;6068491;23;20053;-90
2022/08/30 07:07:49;;;;;;;3.83;1.25;;;16.10;99.90;;;;;;6068146;23;20033;-89
2022/08/30 07:10:15;;;;;;;4.70;1.35;;;16.30;99.90;;;;;;6070316;23;20010;-89
2022/08/30 07:12:41;;;;;;;5.25;1.73;;;16.30;99.90;;;;;;6069589;23;20018;-90
2022/08/30 07:15:08;;;;;;;4.10;1.35;;;16.40;99.90;;;;;;6068059;23;20026;-90
2022/08/30 07:20:20;;;;;;;4.03;1.20;;;16.60;99.90;;;;;;6094670;23;20022;-89
2022/08/30 07:22:46;;;;;;;3.28;1.05;;;16.70;99.90;;;;;;6066958;23;20099;-89
2022/08/30 07:25:13;;;;;;;8.02;1.35;;;16.80;99.90;;;;;;6070184;23;20408;-89
2022/08/30 07:27:39;;;;;;;9.27;1.38;;;16.80;99.90;;;;;;6067103;23;20062;-88
2022/08/30 07:30:06;;;;;;;3.30;1.17;;;17.00;99.90;;;;;;6067195;23;20018;-89
2022/08/30 07:32:32;;;;;;;7.32;1.15;;;17.10;99.90;;;;;;6067285;23;20033;-87
2022/08/30 07:34:58;;;;;;;4.35;1.10;;;17.10;99.90;;;;;;6069807;23;20022;-92
2022/08/30 07:37:24;;;;;;;5.22;1.05;;;17.20;99.90;;;;;;6067534;23;20034;-92
2022/08/30 07:39:50;;;;;;;7.82;1.13;;;17.30;99.90;;;;;;6045909;23;20022;-93
2022/08/30 07:42:15;;;;;;;7.75;0.90;;;17.40;99.90;;;;;;6046786;23;20026;-92
2022/08/30 07:44:42;;;;;;;4.70;1.17;;;17.40;99.90;;;;;;6050316;23;20014;-92
2022/08/30 07:47:08;;;;;;;2.97;1.00;;;17.50;99.90;;;;;;6043781;23;20030;-92
2022/08/30 07:49:35;;;;;;;3.47;0.98;;;17.50;99.90;;;;;;6044297;23;20074;-91
2022/08/30 07:52:01;;;;;;;4.03;1.17;;;17.60;99.90;;;;;;6044957;23;20085;-92
2022/08/30 07:54:27;;;;;;;6.10;1.00;;;17.70;99.90;;;;;;6044430;23;20030;-92
2022/08/30 07:56:54;;;;;;;7.03;0.93;;;17.80;99.90;;;;;;6041185;23;20064;-92
2022/08/30 07:59:21;;;;;;;3.40;1.20;;;17.90;99.90;;;;;;6043453;23;20365;-93
2022/08/30 08:01:46;;;;;;;5.20;0.80;;;18.00;99.90;;;;;;6043591;23;20447;-92
2022/08/30 08:04:12;;;;;;;2.67;0.82;;;18.00;99.90;;;;;;6044961;23;20025;-92
2022/08/30 08:06:39;;;;;;;3.17;0.80;;;18.10;99.90;;;;;;6044875;23;20101;-92
2022/08/30 08:09:05;;;;;;;4.40;0.88;;;18.20;99.90;;;;;;6044506;23;20022;-92
2022/08/30 08:11:32;;;;;;;3.65;0.98;;;18.20;99.90;;;;;;6047479;23;20093;-92
2022/08/30 08:13:58;;;;;;;3.65;0.98;;;18.20;99.90;;;;;;6046882;23;20094;-92
2022/08/30 08:16:26;;;;;;;4.35;0.70;;;18.30;99.90;;;;;;6043573;23;20070;-92
2022/08/30 08:18:52;;;;;;;4.47;0.80;;;18.30;99.90;;;;;;6043903;23;20026;-92
2022/08/30 08:21:20;;;;;;;3.08;0.88;;;18.40;99.90;;;;;;6044575;23;20085;-92
2022/08/30 08:23:46;;;;;;;2.25;0.77;;;18.50;99.90;;;;;;6044967;23;20028;-93
2022/08/30 08:26:12;;;;;;;2.60;0.75;;;18.60;99.90;;;;;;6044488;23;20022;-93
2022/08/30 08:28:38;;;;;;;6.10;1.10;;;18.70;99.90;;;;;;6046692;23;20843;-92
2022/08/30 08:31:15;;;;;;;6.40;0.95;;;18.80;99.90;;;;;;6044293;23;20027;-93
2022/08/30 08:33:40;;;;;;;8.15;1.00;;;18.80;99.90;;;;;;6045893;23;20109;-93
2022/08/30 08:36:06;;;;;;;4.63;0.90;;;18.80;99.90;;;;;;6045450;23;20380;-92
2022/08/30 08:38:32;;;;;;;3.47;0.82;;;18.90;99.90;;;;;;6057507;23;20049;-93
2022/08/30 08:41:11;;;;;;;6.90;1.10;;;19.00;99.90;;;;;;6068120;23;20022;-93
2022/08/30 08:43:38;;;;;;;5.93;0.77;;;19.10;99.90;;;;;;6068304;23;20081;-92
2022/08/30 08:46:10;;;;;;;2.92;0.80;;;19.30;99.90;;;;;;6068521;23;20029;-92
2022/08/30 08:48:49;;;;;;;3.80;0.80;;;19.40;99.90;;;;;;6068533;23;20050;-92
2022/08/30 08:54:12;;;;;;;1.95;0.60;;;19.70;99.90;;;;;;6092084;23;20029;-93
2022/08/30 08:56:38;;;;;;;3.15;0.80;;;19.70;99.90;;;;;;6068816;23;20026;-93
2022/08/30 08:59:07;;;;;;;4.45;1.00;;;19.60;99.90;;;;;;6068108;23;20025;-93
2022/08/30 09:01:33;;;;;;;2.67;0.70;;;19.50;99.90;;;;;;6068170;23;20033;-93
2022/08/30 09:04:04;;;;;;;5.35;1.17;;;19.40;99.90;;;;;;6070548;23;20086;-93
2022/08/30 09:06:42;;;;;;;4.03;0.77;;;19.30;99.90;;;;;;6068414;23;20446;-93
2022/08/30 09:09:08;;;;;;;7.03;0.80;;;19.30;99.90;;;;;;6067856;23;20022;-93
2022/08/30 09:11:36;;;;;;;2.65;0.73;;;19.40;99.90;;;;;;6068515;23;20017;-93
2022/08/30 09:14:07;;;;;;;1.75;0.82;;;19.50;99.90;;;;;;6069053;23;20019;-92
2022/08/30 09:16:56;;;;;;;5.97;1.10;;;19.70;99.90;;;;;;6068324;23;20026;-92
2022/08/30 09:19:43;;;;;;;5.82;0.75;;;19.80;99.90;;;;;;6067926;23;20050;-92
2022/08/30 09:22:24;;;;;;;3.00;0.80;;;19.90;99.90;;;;;;6067191;23;20071;-93
2022/08/30 09:24:53;;;;;;;5.07;1.13;;;20.00;99.90;;;;;;6068429;23;20022;-93
2022/08/30 09:27:30;;;;;;;3.13;0.93;;;20.10;99.90;;;;;;6067575;23;20181;-93
2022/08/30 09:30:00;;;;;;;4.25;0.98;;;20.10;99.90;;;;;;6067249;23;20022;-93
2022/08/30 09:32:30;;;;;;;4.90;0.70;;;20.20;99.90;;;;;;6067044;23;20026;-92
2022/08/30 09:34:56;;;;;;;4.63;0.73;;;20.30;99.90;;;;;;6069499;23;20014;-92
2022/08/30 09:37:26;;;;;;;2.63;0.70;;;20.40;99.90;;;;;;6071022;23;20022;-93
2022/08/30 09:39:52;;;;;;;5.97;0.80;;;20.70;99.90;;;;;;6047755;23;20022;-93
2022/08/30 09:42:22;;;;;;;2.88;0.60;;;20.80;99.90;;;;;;6043383;23;20022;-92
2022/08/30 09:44:48;;;;;;;5.93;0.88;;;20.80;99.90;;;;;;6045567;23;20448;-94
2022/08/30 09:47:23;;;;;;;7.45;1.17;;;20.70;99.90;;;;;;6043806;23;20061;-89
2022/08/30 09:49:49;;;;;;;3.40;0.70;;;20.80;99.90;;;;;;6043384;23;20015;-90
2022/08/30 09:52:37;;;;;;;3.47;0.80;;;20.90;99.90;;;;;;6041732;23;20444;-89
2022/08/30 09:55:23;;;;;;;2.90;0.55;;;21.10;99.90;;;;;;6043159;23;20014;-90
2022/08/30 09:58:08;;;;;;;7.20;1.10;;;21.20;99.90;;;;;;6042496;23;20018;-89
2022/08/30 10:00:43;;;;;;;3.17;0.60;;;21.10;99.90;;;;;;6042784;23;20527;-89
2022/08/30 10:03:19;;;;;;;4.53;0.88;;;21.00;99.90;;;;;;6069625;23;20104;-89
2022/08/30 10:05:52;;;;;;;4.97;1.00;;;21.00;99.90;;;;;;6065880;23;20073;-89
2022/08/30 10:08:44;;;;;;;3.38;0.90;;;21.10;99.90;;;;;;6042259;23;20443;-89
2022/08/30 10:11:23;;;;;;;9.10;0.80;;;21.20;99.90;;;;;;6042014;23;20070;-89
2022/08/30 10:14:07;;;;;;;2.67;0.77;;;21.30;99.90;;;;;;6066747;23;20459;-89
2022/08/30 10:16:53;;;;;;;3.40;0.70;;;21.10;99.90;;;;;;6043505;23;20060;-90
2022/08/30 10:19:39;;;;;;;3.92;0.80;;;20.90;99.90;;;;;;6041853;23;20175;-89
2022/08/30 10:22:13;;;;;;;5.22;0.60;;;20.80;99.90;;;;;;6046026;23;20014;-89
2022/08/30 10:24:46;;;;;;;6.22;0.80;;;21.00;99.90;;;;;;6042931;23;20022;-89
2022/08/30 10:27:23;;;;;;;5.65;1.05;;;21.20;99.90;;;;;;6041522;23;20022;-93
2022/08/30 10:29:58;;;;;;;4.65;1.00;;;21.40;99.90;;;;;;6042948;23;20030;-89
2022/08/30 10:32:36;;;;;;;2.97;0.77;;;21.60;99.90;;;;;;6041272;23;20026;-90
2022/08/30 10:35:12;;;;;;;3.50;0.80;;;21.80;99.90;;;;;;6043034;23;20026;-88
2022/08/30 10:37:43;;;;;;;2.67;0.70;;;21.90;99.90;;;;;;6046016;23;20073;-93
2022/08/30 10:43:08;;;;;;;3.17;0.73;;;22.00;99.90;;;;;;6095607;23;20022;-92
2022/08/30 10:45:39;;;;;;;3.22;0.52;;;22.10;99.90;;;;;;6072043;23;20022;-91
2022/08/30 10:48:15;;;;;;;1.73;0.55;;;22.20;99.90;;;;;;6070026;23;20018;-92
2022/08/30 10:50:46;;;;;;;4.03;0.80;;;22.20;99.90;;;;;;6073479;23;20022;-93
2022/08/30 10:53:16;;;;;;;2.38;0.60;;;22.10;99.90;;;;;;6071152;23;20041;-92
2022/08/30 10:55:50;;;;;;;2.63;0.70;;;22.10;99.90;;;;;;6070127;23;20026;-92
2022/08/30 10:58:17;;;;;;;2.83;0.73;;;22.20;99.90;;;;;;6074516;23;20025;-91
2022/08/30 11:01:17;;;;;;;9.63;0.90;;;22.20;99.90;;;;;;6069934;23;20022;-92
2022/08/30 11:04:07;;;;;;;2.13;0.77;;;22.20;99.90;;;;;;6070670;23;20471;-93
2022/08/30 11:06:41;;;;;;;3.63;0.70;;;22.20;99.90;;;;;;6070922;23;20014;-92
2022/08/30 11:09:21;;;;;;;11.18;0.75;;;22.10;99.90;;;;;;6069684;23;20481;-92
2022/08/30 11:12:00;;;;;;;1.73;0.60;;;22.20;99.90;;;;;;6071187;23;20067;-92
2022/08/30 11:14:26;;;;;;;3.05;0.68;;;22.30;99.90;;;;;;6071144;23;20070;-93
2022/08/30 11:16:55;;;;;;;1.75;0.68;;;22.30;99.90;;;;;;6069807;23;20026;-92
2022/08/30 11:19:27;;;;;;;3.10;0.73;;;22.30;99.90;;;;;;6070606;23;20050;-92
2022/08/30 11:22:14;;;;;;;3.63;0.70;;;22.30;99.90;;;;;;6071199;23;20018;-92
2022/08/30 11:25:04;;;;;;;5.32;0.55;;;22.50;99.90;;;;;;6072359;23;20418;-91
2022/08/30 11:27:40;;;;;;;1.55;0.63;;;22.60;99.90;;;;;;6072309;23;20022;-92
2022/08/30 11:30:24;;;;;;;1.88;0.60;;;22.60;99.90;;;;;;6070604;23;20026;-93
2022/08/30 11:33:04;;;;;;;2.47;0.65;;;22.50;99.90;;;;;;6070427;23;20061;-92
2022/08/30 11:35:39;;;;;;;3.38;0.63;;;22.40;99.90;;;;;;6070414;23;20093;-92
2022/08/30 11:38:18;;;;;;;3.90;0.80;;;22.20;99.90;;;;;;6071881;23;20018;-93
2022/08/30 11:40:47;;;;;;;3.35;0.93;;;22.10;99.90;;;;;;6094367;23;20030;-92
2022/08/30 11:43:45;;;;;;;3.85;0.68;;;22.20;99.90;;;;;;6069584;23;20021;-92
2022/08/30 11:46:14;;;;;;;4.57;0.68;;;22.40;99.90;;;;;;6070133;23;20053;-92
2022/08/30 11:48:44;;;;;;;2.47;0.68;;;22.60;99.90;;;;;;6069911;23;20037;-92
2022/08/30 11:51:35;;;;;;;4.45;0.55;;;22.70;99.90;;;;;;6068663;23;20407;-92
2022/08/30 11:54:15;;;;;;;4.40;0.82;;;22.80;99.90;;;;;;6069285;23;20023;-92
2022/08/30 11:56:53;;;;;;;6.57;1.05;;;22.80;99.90;;;;;;6069124;23;20492;-92
2022/08/30 11:59:38;;;;;;;3.65;0.77;;;22.80;99.90;;;;;;6068853;23;20020;-92
2022/08/30 12:02:06;;;;;;;3.83;0.70;;;22.60;99.90;;;;;;6069134;23;20451;-92
2022/08/30 12:04:45;;;;;;;2.05;0.65;;;22.40;99.90;;;;;;6068286;23;20025;-93
2022/08/30 12:07:50;;;;;;;3.22;0.90;;;22.30;99.90;;;;;;6068755;23;20026;-92
2022/08/30 12:10:34;;;;;;;2.60;0.80;;;22.50;99.90;;;;;;6070722;23;20015;-92
2022/08/30 12:13:00;;;;;;;4.65;0.65;;;22.50;99.90;;;;;;6070134;23;20030;-92
2022/08/30 12:15:55;;;;;;;2.28;0.65;;;22.50;99.90;;;;;;6068082;23;20015;-92
2022/08/30 12:18:29;;;;;;;2.85;0.82;;;22.40;99.90;;;;;;6068498;23;20058;-92
2022/08/30 12:21:03;;;;;;;1.75;0.60;;;22.20;99.90;;;;;;6071109;23;20057;-92
2022/08/30 12:23:40;;;;;;;4.50;0.95;;;22.10;99.90;;;;;;6072790;23;20032;-92
2022/08/30 12:26:12;;;;;;;2.83;0.73;;;22.10;99.90;;;;;;6069508;23;20022;-93
2022/08/30 12:28:39;;;;;;;3.22;0.90;;;22.00;99.90;;;;;;6068236;23;20022;-92
2022/08/30 12:31:14;;;;;;;3.35;0.70;;;22.00;99.90;;;;;;6067286;23;20051;-92
2022/08/30 12:33:45;;;;;;;2.38;0.70;;;22.10;99.90;;;;;;6070243;23;20022;-92
2022/08/30 12:36:13;;;;;;;2.92;0.73;;;22.10;99.90;;;;;;6068599;23;20022;-92
2022/08/30 12:38:39;;;;;;;1.90;0.75;;;22.20;99.90;;;;;;6070600;23;20026;-92
2022/08/30 12:41:05;;;;;;;10.65;0.80;;;22.40;99.90;;;;;;6067376;23;20018;-92
2022/08/30 12:43:34;;;;;;;5.47;0.90;;;22.60;99.90;;;;;;6068060;23;20511;-93
2022/08/30 12:46:05;;;;;;;4.45;0.75;;;22.70;99.90;;;;;;6072064;23;20018;-94
2022/08/30 12:48:35;;;;;;;4.60;0.70;;;22.70;99.90;;;;;;6068229;23;20019;-92
2022/08/30 12:51:01;;;;;;;1.48;0.43;;;22.80;99.90;;;;;;6069237;23;20018;-92
2022/08/30 12:53:32;;;;;;;8.95;0.80;;;22.80;99.90;;;;;;6068051;23;20022;-93
2022/08/30 12:56:01;;;;;;;3.40;0.80;;;22.80;99.90;;;;;;6068608;23;20010;-92
2022/08/30 12:58:47;;;;;;;4.65;0.70;;;22.80;99.90;;;;;;6067655;23;20026;-92
2022/08/30 13:01:26;;;;;;;3.80;0.60;;;22.70;99.90;;;;;;6066511;23;20101;-93
2022/08/30 13:03:56;;;;;;;1.60;0.60;;;22.60;99.90;;;;;;6068973;23;20376;-93
2022/08/30 13:06:50;;;;;;;3.33;0.70;;;22.60;99.90;;;;;;6067495;23;20294;-92